sensor_id;sensor_type;location;lat;lon;timestamp;pressure;altitude;pressure_sealevel;temperature;humidity
7337;BME280;54510;42.016;23.098;2023-05-16T00:01:26;-21652.22;;;18.89;72.46
7337;BME280;54510;42.016;23.098;2023-05-16T00:03:54;-21645.19;;;18.63;73.39
7337;BME280;54510;42.016;23.098;2023-05-16T00:06:19;-21646.31;;;18.67;73.39
7337;BME280;54510;42.016;23.098;2023-05-16T00:08:45;-21643.56;;;18.57;73.46
7337;BME280;54510;42.016;23.098;2023-05-16T00:11:10;-21646.72;;;18.69;73.44
7337;BME280;54510;42.016;23.098;2023-05-16T00:13:35;-21644.38;;;18.60;73.77
7337;BME280;54510;42.016;23.098;2023-05-16T00:16:01;-21642.16;;;18.52;73.91
7337;BME280;54510;42.016;23.098;2023-05-16T00:18:29;-21643.56;;;18.57;73.87
7337;BME280;54510;42.016;23.098;2023-05-16T00:20:54;-21648.09;;;18.74;73.41
7337;BME280;54510;42.016;23.098;2023-05-16T00:23:20;-21646.97;;;18.70;73.35
7337;BME280;54510;42.016;23.098;2023-05-16T00:25:45;-21647.25;;;18.71;73.30
7337;BME280;54510;42.016;23.098;2023-05-16T00:28:11;-21639.00;;;18.40;74.10
7337;BME280;54510;42.016;23.098;2023-05-16T00:30:36;-21640.25;;;18.45;74.62
7337;BME280;54510;42.016;23.098;2023-05-16T00:33:01;-21644.78;;;18.62;74.29
7337;BME280;54510;42.016;23.098;2023-05-16T00:35:27;-21647.94;;;18.73;73.96
7337;BME280;54510;42.016;23.098;2023-05-16T00:37:52;-21646.31;;;18.67;73.83
7337;BME280;54510;42.016;23.098;2023-05-16T00:40:17;-21643.69;;;18.58;74.05
7337;BME280;54510;42.016;23.098;2023-05-16T00:42:43;-21641.47;;;18.49;74.09
7337;BME280;54510;42.016;23.098;2023-05-16T00:45:08;-21642.16;;;18.52;74.15
7337;BME280;54510;42.016;23.098;2023-05-16T00:47:34;-21642.31;;;18.52;74.26
7337;BME280;54510;42.016;23.098;2023-05-16T00:50:00;-21643.69;;;18.58;73.91
7337;BME280;54510;42.016;23.098;2023-05-16T00:52:25;-21644.66;;;18.61;73.68
7337;BME280;54510;42.016;23.098;2023-05-16T00:54:51;-21639.28;;;18.41;74.54
7337;BME280;54510;42.016;23.098;2023-05-16T00:57:16;-21639.28;;;18.41;74.60
7337;BME280;54510;42.016;23.098;2023-05-16T00:59:42;-21639.28;;;18.41;74.31
7337;BME280;54510;42.016;23.098;2023-05-16T01:02:08;-21636.81;;;18.32;74.77
7337;BME280;54510;42.016;23.098;2023-05-16T01:04:33;-21635.03;;;18.26;75.19
7337;BME280;54510;42.016;23.098;2023-05-16T01:06:59;-21632.97;;;18.18;75.31
7337;BME280;54510;42.016;23.098;2023-05-16T01:09:25;-21634.06;;;18.22;75.34
7337;BME280;54510;42.016;23.098;2023-05-16T01:12:01;-21633.50;;;18.20;75.23
7337;BME280;54510;42.016;23.098;2023-05-16T01:24:44;-21628.00;;;18.00;76.25
7337;BME280;54510;42.016;23.098;2023-05-16T01:27:16;-21624.56;;;17.87;76.48
7337;BME280;54510;42.016;23.098;2023-05-16T01:29:41;-21629.66;;;18.06;75.78
7337;BME280;54510;42.016;23.098;2023-05-16T01:32:07;-21632.97;;;18.18;75.61
7337;BME280;54510;42.016;23.098;2023-05-16T01:34:32;-21631.59;;;18.13;75.42
7337;BME280;54510;42.016;23.098;2023-05-16T01:37:17;-21633.50;;;18.20;75.60
7337;BME280;54510;42.016;23.098;2023-05-16T01:39:50;-21628.00;;;18.00;75.24
7337;BME280;54510;42.016;23.098;2023-05-16T01:42:20;-21626.78;;;17.95;75.82
7337;BME280;54510;42.016;23.098;2023-05-16T01:47:13;-21628.84;;;18.03;75.80
7337;BME280;54510;42.016;23.098;2023-05-16T01:49:50;-21632.69;;;18.17;75.70
7337;BME280;54510;42.016;23.098;2023-05-16T01:52:29;-21628.00;;;18.00;75.63
7337;BME280;54510;42.016;23.098;2023-05-16T01:54:56;-21631.03;;;18.11;75.69
7337;BME280;54510;42.016;23.098;2023-05-16T01:57:23;-21630.63;;;18.09;75.79
7337;BME280;54510;42.016;23.098;2023-05-16T01:59:49;-21628.84;;;18.03;75.59
7337;BME280;54510;42.016;23.098;2023-05-16T02:02:18;-21630.06;;;18.07;76.08
7337;BME280;54510;42.016;23.098;2023-05-16T02:04:43;-21634.34;;;18.23;75.34
7337;BME280;54510;42.016;23.098;2023-05-16T02:07:08;-21634.75;;;18.25;75.28
7337;BME280;54510;42.016;23.098;2023-05-16T02:09:34;-21636.00;;;18.29;75.37
7337;BME280;54510;42.016;23.098;2023-05-16T02:11:59;-21636.13;;;18.30;75.11
7337;BME280;54510;42.016;23.098;2023-05-16T02:14:24;-21636.13;;;18.30;75.09
7337;BME280;54510;42.016;23.098;2023-05-16T02:16:50;-21632.69;;;18.17;75.03
7337;BME280;54510;42.016;23.098;2023-05-16T02:19:15;-21632.28;;;18.15;75.49
7337;BME280;54510;42.016;23.098;2023-05-16T02:21:40;-21633.78;;;18.21;74.60
7337;BME280;54510;42.016;23.098;2023-05-16T02:24:06;-21634.88;;;18.25;74.64
7337;BME280;54510;42.016;23.098;2023-05-16T02:26:31;-21633.09;;;18.19;74.34
7337;BME280;54510;42.016;23.098;2023-05-16T02:28:56;-21632.97;;;18.18;74.70
7337;BME280;54510;42.016;23.098;2023-05-16T02:31:28;-21633.66;;;18.21;74.37
7337;BME280;54510;42.016;23.098;2023-05-16T02:33:54;-21633.50;;;18.20;74.88
7337;BME280;54510;42.016;23.098;2023-05-16T02:36:19;-21633.94;;;18.22;75.02
7337;BME280;54510;42.016;23.098;2023-05-16T02:38:45;-21628.00;;;18.00;75.24
7337;BME280;54510;42.016;23.098;2023-05-16T02:41:10;-21631.31;;;18.12;74.95
7337;BME280;54510;42.016;23.098;2023-05-16T02:43:36;-21632.69;;;18.17;75.03
7337;BME280;54510;42.016;23.098;2023-05-16T02:46:03;-21630.50;;;18.09;74.96
7337;BME280;54510;42.016;23.098;2023-05-16T02:48:28;-21631.59;;;18.13;75.01
7337;BME280;54510;42.016;23.098;2023-05-16T02:50:54;-21634.63;;;18.24;74.53
7337;BME280;54510;42.016;23.098;2023-05-16T02:53:19;-21633.38;;;18.20;74.77
7337;BME280;54510;42.016;23.098;2023-05-16T02:55:45;-21637.22;;;18.34;73.94
7337;BME280;54510;42.016;23.098;2023-05-16T02:58:10;-21635.56;;;18.28;74.16
7337;BME280;54510;42.016;23.098;2023-05-16T03:00:36;-21634.34;;;18.23;74.02
7337;BME280;54510;42.016;23.098;2023-05-16T03:03:01;-21631.44;;;18.12;73.91
7337;BME280;54510;42.016;23.098;2023-05-16T03:05:26;-21632.00;;;18.14;74.61
7337;BME280;54510;42.016;23.098;2023-05-16T03:07:52;-21632.28;;;18.15;74.65
7337;BME280;54510;42.016;23.098;2023-05-16T03:10:17;-21633.09;;;18.19;74.47
7337;BME280;54510;42.016;23.098;2023-05-16T03:12:42;-21633.38;;;18.20;74.17
7337;BME280;54510;42.016;23.098;2023-05-16T03:15:07;-21633.25;;;18.19;74.44
7337;BME280;54510;42.016;23.098;2023-05-16T03:17:33;-21630.75;;;18.10;74.64
7337;BME280;54510;42.016;23.098;2023-05-16T03:19:59;-21631.72;;;18.13;74.55
7337;BME280;54510;42.016;23.098;2023-05-16T03:22:24;-21629.94;;;18.07;74.85
7337;BME280;54510;42.016;23.098;2023-05-16T03:24:49;-21633.25;;;18.19;74.78
7337;BME280;54510;42.016;23.098;2023-05-16T03:27:14;-21632.56;;;18.16;74.72
7337;BME280;54510;42.016;23.098;2023-05-16T03:29:40;-21632.56;;;18.16;74.62
7337;BME280;54510;42.016;23.098;2023-05-16T03:32:05;-21632.13;;;18.15;74.79
7337;BME280;54510;42.016;23.098;2023-05-16T03:34:30;-21629.66;;;18.06;74.17
7337;BME280;54510;42.016;23.098;2023-05-16T03:36:55;-21628.97;;;18.03;75.12
7337;BME280;54510;42.016;23.098;2023-05-16T03:39:21;-21630.63;;;18.09;74.87
7337;BME280;54510;42.016;23.098;2023-05-16T03:41:46;-21631.44;;;18.12;74.59
7337;BME280;54510;42.016;23.098;2023-05-16T03:44:12;-21629.13;;;18.04;74.92
7337;BME280;54510;42.016;23.098;2023-05-16T03:46:37;-21631.59;;;18.13;75.27
7337;BME280;54510;42.016;23.098;2023-05-16T03:49:02;-21633.50;;;18.20;74.27
7337;BME280;54510;42.016;23.098;2023-05-16T03:51:28;-21634.19;;;18.23;74.30
7337;BME280;54510;42.016;23.098;2023-05-16T03:53:54;-21634.47;;;18.24;74.28
7337;BME280;54510;42.016;23.098;2023-05-16T03:56:19;-21632.81;;;18.17;74.28
7337;BME280;54510;42.016;23.098;2023-05-16T03:58:45;-21631.44;;;18.12;74.20
7337;BME280;54510;42.016;23.098;2023-05-16T04:01:11;-21631.31;;;18.12;74.40
7337;BME280;54510;42.016;23.098;2023-05-16T04:03:36;-21630.06;;;18.07;74.61
7337;BME280;54510;42.016;23.098;2023-05-16T04:06:02;-21628.28;;;18.01;75.01
7337;BME280;54510;42.016;23.098;2023-05-16T04:08:27;-21632.81;;;18.17;74.35
7337;BME280;54510;42.016;23.098;2023-05-16T04:10:53;-21632.97;;;18.18;74.75
7337;BME280;54510;42.016;23.098;2023-05-16T04:13:18;-21634.88;;;18.25;74.44
7337;BME280;54510;42.016;23.098;2023-05-16T04:15:44;-21629.66;;;18.06;75.10
7337;BME280;54510;42.016;23.098;2023-05-16T04:18:09;-21633.78;;;18.21;74.88
7337;BME280;54510;42.016;23.098;2023-05-16T04:20:35;-21629.13;;;18.04;74.83
7337;BME280;54510;42.016;23.098;2023-05-16T04:23:01;-21630.50;;;18.09;75.20
7337;BME280;54510;42.016;23.098;2023-05-16T04:25:26;-21634.75;;;18.25;74.41
7337;BME280;54510;42.016;23.098;2023-05-16T04:27:52;-21637.22;;;18.34;74.01
7337;BME280;54510;42.016;23.098;2023-05-16T04:30:17;-21639.69;;;18.43;73.58
7337;BME280;54510;42.016;23.098;2023-05-16T04:32:42;-21640.09;;;18.44;73.63
7337;BME280;54510;42.016;23.098;2023-05-16T04:35:08;-21640.25;;;18.45;73.55
7337;BME280;54510;42.016;23.098;2023-05-16T04:37:33;-21639.69;;;18.43;73.21
7337;BME280;54510;42.016;23.098;2023-05-16T04:39:59;-21639.28;;;18.41;73.92
7337;BME280;54510;42.016;23.098;2023-05-16T04:42:25;-21641.75;;;18.50;74.15
7337;BME280;54510;42.016;23.098;2023-05-16T04:44:50;-21645.06;;;18.63;73.76
7337;BME280;54510;42.016;23.098;2023-05-16T04:47:16;-21647.13;;;18.70;73.58
7337;BME280;54510;42.016;23.098;2023-05-16T04:49:42;-21648.38;;;18.75;73.24
7337;BME280;54510;42.016;23.098;2023-05-16T04:52:07;-21648.63;;;18.76;72.78
7337;BME280;54510;42.016;23.098;2023-05-16T04:54:32;-21648.38;;;18.75;72.40
7337;BME280;54510;42.016;23.098;2023-05-16T04:56:58;-21649.72;;;18.80;71.97
7337;BME280;54510;42.016;23.098;2023-05-16T04:59:23;-21649.72;;;18.80;71.82
7337;BME280;54510;42.016;23.098;2023-05-16T05:01:48;-21649.19;;;18.78;72.51
7337;BME280;54510;42.016;23.098;2023-05-16T05:04:14;-21652.06;;;18.88;71.95
7337;BME280;54510;42.016;23.098;2023-05-16T05:06:39;-21653.72;;;18.94;71.90
7337;BME280;54510;42.016;23.098;2023-05-16T05:09:05;-21656.88;;;19.06;71.54
7337;BME280;54510;42.016;23.098;2023-05-16T05:11:30;-21655.91;;;19.03;71.22
7337;BME280;54510;42.016;23.098;2023-05-16T05:13:56;-21647.13;;;18.70;72.60
7337;BME280;54510;42.016;23.098;2023-05-16T05:16:21;-21653.59;;;18.94;72.06
7337;BME280;54510;42.016;23.098;2023-05-16T05:18:46;-21657.84;;;19.10;71.71
7337;BME280;54510;42.016;23.098;2023-05-16T05:21:12;-21658.25;;;19.11;71.69
7337;BME280;54510;42.016;23.098;2023-05-16T05:23:37;-21659.63;;;19.16;71.15
7337;BME280;54510;42.016;23.098;2023-05-16T05:26:02;-21665.94;;;19.40;70.66
7337;BME280;54510;42.016;23.098;2023-05-16T05:28:28;-21670.47;;;19.56;70.13
7337;BME280;54510;42.016;23.098;2023-05-16T05:30:53;-21671.00;;;19.58;69.61
7337;BME280;54510;42.016;23.098;2023-05-16T05:33:18;-21674.03;;;19.69;69.29
7337;BME280;54510;42.016;23.098;2023-05-16T05:35:44;-21674.31;;;19.70;68.99
7337;BME280;54510;42.016;23.098;2023-05-16T05:38:09;-21677.06;;;19.81;68.76
7337;BME280;54510;42.016;23.098;2023-05-16T05:40:34;-21679.13;;;19.88;68.88
7337;BME280;54510;42.016;23.098;2023-05-16T05:43:00;-21675.81;;;19.76;68.85
7337;BME280;54510;42.016;23.098;2023-05-16T05:45:25;-21674.19;;;19.70;69.16
7337;BME280;54510;42.016;23.098;2023-05-16T05:47:50;-21671.00;;;19.58;69.69
7337;BME280;54510;42.016;23.098;2023-05-16T05:50:15;-21673.22;;;19.66;69.26
7337;BME280;54510;42.016;23.098;2023-05-16T05:52:41;-21673.22;;;19.66;69.14
7337;BME280;54510;42.016;23.098;2023-05-16T05:55:06;-21675.28;;;19.74;68.79
7337;BME280;54510;42.016;23.098;2023-05-16T05:57:32;-21678.28;;;19.85;68.63
7337;BME280;54510;42.016;23.098;2023-05-16T05:59:57;-21681.31;;;19.96;68.38
7337;BME280;54510;42.016;23.098;2023-05-16T06:02:22;-21679.25;;;19.89;68.14
7337;BME280;54510;42.016;23.098;2023-05-16T06:04:47;-21681.84;;;19.98;67.63
7337;BME280;54510;42.016;23.098;2023-05-16T06:07:13;-21687.63;;;20.20;67.39
7337;BME280;54510;42.016;23.098;2023-05-16T06:09:40;-21685.97;;;20.13;67.69
7337;BME280;54510;42.016;23.098;2023-05-16T06:12:06;-21689.81;;;20.28;67.57
7337;BME280;54510;42.016;23.098;2023-05-16T06:14:31;-21689.81;;;20.28;67.75
7337;BME280;54510;42.016;23.098;2023-05-16T06:16:57;-21694.47;;;20.45;66.49
7337;BME280;54510;42.016;23.098;2023-05-16T06:19:22;-21690.09;;;20.29;66.69
7337;BME280;54510;42.016;23.098;2023-05-16T06:21:47;-21692.97;;;20.39;66.52
7337;BME280;54510;42.016;23.098;2023-05-16T06:24:13;-21699.97;;;20.65;65.66
7337;BME280;54510;42.016;23.098;2023-05-16T06:26:38;-21708.59;;;20.97;64.46
7337;BME280;54510;42.016;23.098;2023-05-16T06:29:03;-21713.78;;;21.16;64.05
7337;BME280;54510;42.016;23.098;2023-05-16T06:31:29;-21711.59;;;21.08;63.44
7337;BME280;54510;42.016;23.098;2023-05-16T06:33:55;-21714.06;;;21.17;64.10
7337;BME280;54510;42.016;23.098;2023-05-16T06:36:20;-21715.56;;;21.23;63.74
7337;BME280;54510;42.016;23.098;2023-05-16T06:38:45;-21717.75;;;21.31;63.78
7337;BME280;54510;42.016;23.098;2023-05-16T06:41:11;-21722.56;;;21.49;63.59
7337;BME280;54510;42.016;23.098;2023-05-16T06:43:36;-21725.84;;;21.61;63.42
7337;BME280;54510;42.016;23.098;2023-05-16T06:46:01;-21721.59;;;21.45;62.93
7337;BME280;54510;42.016;23.098;2023-05-16T06:48:27;-21719.94;;;21.39;62.61
7337;BME280;54510;42.016;23.098;2023-05-16T06:50:53;-21725.69;;;21.60;62.62
7337;BME280;54510;42.016;23.098;2023-05-16T06:53:18;-21732.00;;;21.84;61.91
7337;BME280;54510;42.016;23.098;2023-05-16T06:55:43;-21733.22;;;21.88;61.88
7337;BME280;54510;42.016;23.098;2023-05-16T06:58:09;-21735.97;;;21.98;61.22
7337;BME280;54510;42.016;23.098;2023-05-16T07:00:34;-21739.38;;;22.11;61.27
7337;BME280;54510;42.016;23.098;2023-05-16T07:02:59;-21746.34;;;22.37;61.09
7337;BME280;54510;42.016;23.098;2023-05-16T07:05:25;-21751.00;;;22.54;59.87
7337;BME280;54510;42.016;23.098;2023-05-16T07:07:50;-21749.91;;;22.50;59.74
7337;BME280;54510;42.016;23.098;2023-05-16T07:10:15;-21752.91;;;22.61;60.15
7337;BME280;54510;42.016;23.098;2023-05-16T07:12:41;-21755.38;;;22.70;59.93
7337;BME280;54510;42.016;23.098;2023-05-16T07:15:07;-21755.91;;;22.72;59.37
7337;BME280;54510;42.016;23.098;2023-05-16T07:17:32;-21745.66;;;22.34;60.08
7337;BME280;54510;42.016;23.098;2023-05-16T07:19:57;-21754.28;;;22.66;59.43
7337;BME280;54510;42.016;23.098;2023-05-16T07:22:23;-21757.00;;;22.76;59.50
7337;BME280;54510;42.016;23.098;2023-05-16T07:24:48;-21758.66;;;22.82;58.66
7337;BME280;54510;42.016;23.098;2023-05-16T07:27:13;-21757.44;;;22.78;58.82
7337;BME280;54510;42.016;23.098;2023-05-16T07:29:39;-21754.28;;;22.66;59.16
7337;BME280;54510;42.016;23.098;2023-05-16T07:32:05;-21761.25;;;22.92;59.43
7337;BME280;54510;42.016;23.098;2023-05-16T07:34:30;-21766.97;;;23.13;58.85
7337;BME280;54510;42.016;23.098;2023-05-16T07:36:55;-21777.22;;;23.51;57.72
7337;BME280;54510;42.016;23.098;2023-05-16T07:39:21;-21774.34;;;23.41;57.69
7337;BME280;54510;42.016;23.098;2023-05-16T07:41:46;-21766.03;;;23.10;57.91
7337;BME280;54510;42.016;23.098;2023-05-16T07:44:11;-21767.13;;;23.14;57.94
7337;BME280;54510;42.016;23.098;2023-05-16T07:46:36;-21771.34;;;23.30;58.62
7337;BME280;54510;42.016;23.098;2023-05-16T07:49:02;-21771.75;;;23.31;58.00
7337;BME280;54510;42.016;23.098;2023-05-16T07:51:27;-21779.13;;;23.58;57.59
7337;BME280;54510;42.016;23.098;2023-05-16T07:53:52;-21779.94;;;23.61;57.05
7337;BME280;54510;42.016;23.098;2023-05-16T07:56:18;-21776.00;;;23.47;58.27
7337;BME280;54510;42.016;23.098;2023-05-16T07:58:43;-21783.63;;;23.75;56.99
7337;BME280;54510;42.016;23.098;2023-05-16T08:01:09;-21788.00;;;23.91;57.41
7337;BME280;54510;42.016;23.098;2023-05-16T08:03:34;-21791.53;;;24.05;56.23
7337;BME280;54510;42.016;23.098;2023-05-16T08:06:00;-21794.94;;;24.17;55.92
7337;BME280;54510;42.016;23.098;2023-05-16T08:08:25;-21795.50;;;24.19;55.70
7337;BME280;54510;42.016;23.098;2023-05-16T08:10:50;-21794.28;;;24.15;55.35
7337;BME280;54510;42.016;23.098;2023-05-16T08:13:16;-21799.72;;;24.35;55.09
7337;BME280;54510;42.016;23.098;2023-05-16T08:15:41;-21791.28;;;24.03;55.71
7337;BME280;54510;42.016;23.098;2023-05-16T08:18:11;-21791.53;;;24.05;56.14
7337;BME280;54510;42.016;23.098;2023-05-16T08:20:37;-21794.28;;;24.15;56.45
7337;BME280;54510;42.016;23.098;2023-05-16T08:23:02;-21791.28;;;24.03;56.51
7337;BME280;54510;42.016;23.098;2023-05-16T08:25:28;-21796.19;;;24.22;56.18
7337;BME280;54510;42.016;23.098;2023-05-16T08:27:53;-21802.88;;;24.47;55.76
7337;BME280;54510;42.016;23.098;2023-05-16T08:30:18;-21805.31;;;24.56;56.04
7337;BME280;54510;42.016;23.098;2023-05-16T08:32:44;-21807.50;;;24.64;55.79
7337;BME280;54510;42.016;23.098;2023-05-16T08:35:09;-21809.94;;;24.73;55.14
7337;BME280;54510;42.016;23.098;2023-05-16T08:37:35;-21799.47;;;24.34;56.68
7337;BME280;54510;42.016;23.098;2023-05-16T08:40:00;-21805.19;;;24.55;56.20
7337;BME280;54510;42.016;23.098;2023-05-16T08:42:25;-21814.31;;;24.89;55.33
7337;BME280;54510;42.016;23.098;2023-05-16T08:44:51;-21821.81;;;25.17;54.66
7337;BME280;54510;42.016;23.098;2023-05-16T08:47:17;-21829.81;;;25.47;54.10
7337;BME280;54510;42.016;23.098;2023-05-16T08:49:43;-21836.22;;;25.71;53.15
7337;BME280;54510;42.016;23.098;2023-05-16T08:52:11;-21835.69;;;25.69;52.59
7337;BME280;54510;42.016;23.098;2023-05-16T08:54:37;-21833.09;;;25.59;53.47
7337;BME280;54510;42.016;23.098;2023-05-16T08:57:03;-21838.41;;;25.79;52.42
7337;BME280;54510;42.016;23.098;2023-05-16T08:59:29;-21834.03;;;25.63;52.62
7337;BME280;54510;42.016;23.098;2023-05-16T09:01:55;-21837.03;;;25.74;53.27
7337;BME280;54510;42.016;23.098;2023-05-16T09:04:21;-21833.38;;;25.60;53.95
7337;BME280;54510;42.016;23.098;2023-05-16T09:06:47;-21839.50;;;25.83;52.77
7337;BME280;54510;42.016;23.098;2023-05-16T09:09:12;-21841.25;;;25.89;52.42
7337;BME280;54510;42.016;23.098;2023-05-16T09:11:37;-21835.53;;;25.68;53.66
7337;BME280;54510;42.016;23.098;2023-05-16T09:14:03;-21849.69;;;26.21;53.37
7337;BME280;54510;42.016;23.098;2023-05-16T09:16:29;-21857.84;;;26.51;52.08
7337;BME280;54510;42.016;23.098;2023-05-16T09:18:56;-21866.41;;;26.83;51.99
7337;BME280;54510;42.016;23.098;2023-05-16T09:21:22;-21866.81;;;26.85;51.17
7337;BME280;54510;42.016;23.098;2023-05-16T09:23:48;-21859.88;;;26.59;52.26
7337;BME280;54510;42.016;23.098;2023-05-16T09:26:14;-21863.28;;;26.71;51.07
7337;BME280;54510;42.016;23.098;2023-05-16T09:28:39;-21859.47;;;26.57;50.22
7337;BME280;54510;42.016;23.098;2023-05-16T09:31:18;-21855.13;;;26.41;50.38
7337;BME280;54510;42.016;23.098;2023-05-16T09:33:43;-21865.59;;;26.80;50.68
7337;BME280;54510;42.016;23.098;2023-05-16T09:36:08;-21872.66;;;27.06;49.04
7337;BME280;54510;42.016;23.098;2023-05-16T09:38:34;-21871.28;;;27.01;49.39
7337;BME280;54510;42.016;23.098;2023-05-16T09:41:00;-21878.22;;;27.27;48.92
7337;BME280;54510;42.016;23.098;2023-05-16T09:43:26;-21880.09;;;27.34;47.81
7337;BME280;54510;42.016;23.098;2023-05-16T09:45:51;-21881.06;;;27.38;47.52
7337;BME280;54510;42.016;23.098;2023-05-16T09:48:17;-21882.41;;;27.43;46.88
7337;BME280;54510;42.016;23.098;2023-05-16T09:50:46;-21886.47;;;27.58;46.78
7337;BME280;54510;42.016;23.098;2023-05-16T09:53:13;-21886.47;;;27.58;46.26
7337;BME280;54510;42.016;23.098;2023-05-16T09:55:38;-21885.25;;;27.54;46.24
7337;BME280;54510;42.016;23.098;2023-05-16T09:58:03;-21882.28;;;27.42;47.11
7337;BME280;54510;42.016;23.098;2023-05-16T10:00:29;-21879.84;;;27.33;46.65
7337;BME280;54510;42.016;23.098;2023-05-16T10:02:55;-21878.88;;;27.30;47.12
7337;BME280;54510;42.016;23.098;2023-05-16T10:05:21;-21881.31;;;27.39;46.67
7337;BME280;54510;42.016;23.098;2023-05-16T10:07:47;-21881.59;;;27.40;46.43
7337;BME280;54510;42.016;23.098;2023-05-16T10:10:14;-21885.13;;;27.53;46.86
7337;BME280;54510;42.016;23.098;2023-05-16T10:12:39;-21883.50;;;27.47;46.08
7337;BME280;54510;42.016;23.098;2023-05-16T10:15:05;-21892.72;;;27.81;46.36
7337;BME280;54510;42.016;23.098;2023-05-16T10:17:32;-21894.47;;;27.88;46.24
7337;BME280;54510;42.016;23.098;2023-05-16T10:20:02;-21889.59;;;27.70;46.40
7337;BME280;54510;42.016;23.098;2023-05-16T10:22:31;-21888.09;;;27.64;46.74
7337;BME280;54510;42.016;23.098;2023-05-16T10:27:26;-21888.94;;;27.67;46.47
7337;BME280;54510;42.016;23.098;2023-05-16T10:29:52;-21891.38;;;27.76;46.55
7337;BME280;54510;42.016;23.098;2023-05-16T10:32:17;-21892.19;;;27.79;46.47
7337;BME280;54510;42.016;23.098;2023-05-16T10:34:43;-21893.53;;;27.84;46.35
7337;BME280;54510;42.016;23.098;2023-05-16T10:37:11;-21897.88;;;28.01;46.33
7337;BME280;54510;42.016;23.098;2023-05-16T10:39:37;-21899.78;;;28.08;46.29
7337;BME280;54510;42.016;23.098;2023-05-16T10:42:03;-21894.88;;;27.89;45.60
7337;BME280;54510;42.016;23.098;2023-05-16T10:44:30;-21891.63;;;27.77;45.80
7337;BME280;54510;42.016;23.098;2023-05-16T10:46:57;-21883.09;;;27.45;44.10
7337;BME280;54510;42.016;23.098;2023-05-16T10:49:23;-21878.88;;;27.30;42.09
7337;BME280;54510;42.016;23.098;2023-05-16T10:54:32;-21877.00;;;27.23;41.18
7337;BME280;54510;42.016;23.098;2023-05-16T10:56:58;-21874.00;;;27.11;40.75
7337;BME280;54510;42.016;23.098;2023-05-16T10:59:27;-21874.13;;;27.12;40.73
7337;BME280;54510;42.016;23.098;2023-05-16T11:01:53;-21874.69;;;27.14;40.54
7337;BME280;54510;42.016;23.098;2023-05-16T11:04:19;-21874.00;;;27.11;40.76
7337;BME280;54510;42.016;23.098;2023-05-16T11:06:45;-21868.72;;;26.92;41.55
7337;BME280;54510;42.016;23.098;2023-05-16T11:09:17;-21869.13;;;26.93;41.51
7337;BME280;54510;42.016;23.098;2023-05-16T11:11:44;-21871.56;;;27.02;41.45
7337;BME280;54510;42.016;23.098;2023-05-16T11:17:14;-21885.13;;;27.53;42.27
7337;BME280;54510;42.016;23.098;2023-05-16T11:22:12;-21885.94;;;27.56;44.23
7337;BME280;54510;42.016;23.098;2023-05-16T11:24:48;-21892.84;;;27.82;42.72
7337;BME280;54510;42.016;23.098;2023-05-16T11:27:16;-21897.59;;;28.00;42.77
7337;BME280;54510;42.016;23.098;2023-05-16T11:29:44;-21901.13;;;28.13;43.25
7337;BME280;54510;42.016;23.098;2023-05-16T11:32:09;-21904.13;;;28.24;42.81
7337;BME280;54510;42.016;23.098;2023-05-16T11:34:35;-21909.81;;;28.45;41.49
7337;BME280;54510;42.016;23.098;2023-05-16T11:37:04;-21914.00;;;28.61;41.14
7337;BME280;54510;42.016;23.098;2023-05-16T11:39:30;-21914.53;;;28.63;41.19
7337;BME280;54510;42.016;23.098;2023-05-16T11:41:56;-21918.59;;;28.78;41.03
7337;BME280;54510;42.016;23.098;2023-05-16T11:44:21;-21918.19;;;28.77;40.88
7337;BME280;54510;42.016;23.098;2023-05-16T11:46:46;-21909.81;;;28.45;41.26
7337;BME280;54510;42.016;23.098;2023-05-16T11:49:11;-21909.41;;;28.44;42.41
7337;BME280;54510;42.016;23.098;2023-05-16T11:51:40;-21906.00;;;28.31;42.65
7337;BME280;54510;42.016;23.098;2023-05-16T11:54:10;-21901.94;;;28.16;43.55
7337;BME280;54510;42.016;23.098;2023-05-16T11:56:37;-21894.63;;;27.88;44.05
7337;BME280;54510;42.016;23.098;2023-05-16T11:59:03;-21893.25;;;27.83;44.55
7337;BME280;54510;42.016;23.098;2023-05-16T12:01:35;-21886.22;;;27.57;45.10
7337;BME280;54510;42.016;23.098;2023-05-16T12:04:01;-21884.03;;;27.49;45.50
7337;BME280;54510;42.016;23.098;2023-05-16T12:06:26;-21885.00;;;27.52;44.79
7337;BME280;54510;42.016;23.098;2023-05-16T12:08:53;-21888.09;;;27.64;44.97
7337;BME280;54510;42.016;23.098;2023-05-16T12:11:18;-21881.31;;;27.39;45.97
7337;BME280;54510;42.016;23.098;2023-05-16T12:13:45;-21873.59;;;27.10;46.22
7337;BME280;54510;42.016;23.098;2023-05-16T12:16:11;-21873.72;;;27.10;47.19
7337;BME280;54510;42.016;23.098;2023-05-16T12:18:36;-21870.59;;;26.99;47.85
7337;BME280;54510;42.016;23.098;2023-05-16T12:21:03;-21864.91;;;26.78;48.20
7337;BME280;54510;42.016;23.098;2023-05-16T12:23:28;-21858.13;;;26.52;48.70
7337;BME280;54510;42.016;23.098;2023-05-16T12:25:55;-21859.06;;;26.56;48.78
7337;BME280;54510;42.016;23.098;2023-05-16T12:28:21;-21854.72;;;26.40;48.97
7337;BME280;54510;42.016;23.098;2023-05-16T12:30:46;-21853.63;;;26.35;49.19
7337;BME280;54510;42.016;23.098;2023-05-16T12:33:13;-21852.94;;;26.33;49.30
7337;BME280;54510;42.016;23.098;2023-05-16T12:35:42;-21845.75;;;26.06;49.51
7337;BME280;54510;42.016;23.098;2023-05-16T12:38:08;-21842.47;;;25.94;50.53
7337;BME280;54510;42.016;23.098;2023-05-16T12:40:38;-21840.56;;;25.87;50.85
7337;BME280;54510;42.016;23.098;2023-05-16T12:43:12;-21840.72;;;25.87;49.95
7337;BME280;54510;42.016;23.098;2023-05-16T12:45:38;-21843.84;;;25.99;49.53
7337;BME280;54510;42.016;23.098;2023-05-16T12:48:03;-21844.66;;;26.02;49.54
7337;BME280;54510;42.016;23.098;2023-05-16T12:50:30;-21847.66;;;26.13;49.66
7337;BME280;54510;42.016;23.098;2023-05-16T12:52:58;-21848.88;;;26.18;49.82
7337;BME280;54510;42.016;23.098;2023-05-16T12:55:24;-21847.66;;;26.13;50.17
7337;BME280;54510;42.016;23.098;2023-05-16T12:57:50;-21845.47;;;26.05;50.05
7337;BME280;54510;42.016;23.098;2023-05-16T13:00:18;-21848.88;;;26.18;49.55
7337;BME280;54510;42.016;23.098;2023-05-16T13:02:44;-21848.06;;;26.15;50.44
7337;BME280;54510;42.016;23.098;2023-05-16T13:05:10;-21847.09;;;26.11;51.29
7337;BME280;54510;42.016;23.098;2023-05-16T13:07:36;-21848.59;;;26.17;51.98